sensor_id;sensor_type;location;lat;lon;timestamp;P1;durP1;ratioP1;P2;durP2;ratioP2
80131;SDS011;69442;51.442;10.564;2023-09-18T00:00:24;3.22;;;2.92;;
80131;SDS011;69442;51.442;10.564;2023-09-18T00:02:49;4.15;;;3.40;;
80131;SDS011;69442;51.442;10.564;2023-09-18T00:05:15;5.28;;;3.60;;
80131;SDS011;69442;51.442;10.564;2023-09-18T00:07:43;2.90;;;2.50;;
80131;SDS011;69442;51.442;10.564;2023-09-18T00:10:12;3.65;;;3.03;;
80131;SDS011;69442;51.442;10.564;2023-09-18T00:12:38;3.00;;;2.70;;
80131;SDS011;69442;51.442;10.564;2023-09-18T00:15:05;3.30;;;3.00;;
80131;SDS011;69442;51.442;10.564;2023-09-18T00:17:33;2.38;;;2.17;;
80131;SDS011;69442;51.442;10.564;2023-09-18T00:19:59;5.63;;;4.05;;
80131;SDS011;69442;51.442;10.564;2023-09-18T00:22:25;2.38;;;2.17;;
80131;SDS011;69442;51.442;10.564;2023-09-18T00:24:50;2.20;;;2.00;;
80131;SDS011;69442;51.442;10.564;2023-09-18T00:27:15;3.47;;;3.17;;
80131;SDS011;69442;51.442;10.564;2023-09-18T00:29:41;3.80;;;3.08;;
80131;SDS011;69442;51.442;10.564;2023-09-18T00:32:07;2.40;;;2.20;;
80131;SDS011;69442;51.442;10.564;2023-09-18T00:34:32;3.97;;;2.90;;
80131;SDS011;69442;51.442;10.564;2023-09-18T00:36:58;3.40;;;2.85;;
80131;SDS011;69442;51.442;10.564;2023-09-18T00:39:24;2.42;;;2.22;;
80131;SDS011;69442;51.442;10.564;2023-09-18T00:41:50;4.30;;;3.42;;
80131;SDS011;69442;51.442;10.564;2023-09-18T00:44:19;3.65;;;2.58;;
80131;SDS011;69442;51.442;10.564;2023-09-18T00:46:45;4.15;;;3.47;;
80131;SDS011;69442;51.442;10.564;2023-09-18T00:49:10;4.78;;;2.75;;
80131;SDS011;69442;51.442;10.564;2023-09-18T00:51:37;3.33;;;3.03;;
80131;SDS011;69442;51.442;10.564;2023-09-18T00:54:02;3.72;;;3.15;;
80131;SDS011;69442;51.442;10.564;2023-09-18T00:56:28;2.83;;;2.40;;
80131;SDS011;69442;51.442;10.564;2023-09-18T00:58:53;3.08;;;2.45;;
80131;SDS011;69442;51.442;10.564;2023-09-18T01:01:19;4.28;;;3.88;;
80131;SDS011;69442;51.442;10.564;2023-09-18T01:03:49;2.47;;;2.22;;
80131;SDS011;69442;51.442;10.564;2023-09-18T01:06:16;2.50;;;2.30;;
80131;SDS011;69442;51.442;10.564;2023-09-18T01:08:42;2.80;;;2.50;;
80131;SDS011;69442;51.442;10.564;2023-09-18T01:11:12;2.50;;;2.30;;
80131;SDS011;69442;51.442;10.564;2023-09-18T01:13:56;3.00;;;2.50;;
80131;SDS011;69442;51.442;10.564;2023-09-18T01:16:25;2.85;;;2.33;;
80131;SDS011;69442;51.442;10.564;2023-09-18T01:19:05;5.82;;;2.58;;
80131;SDS011;69442;51.442;10.564;2023-09-18T01:21:30;3.30;;;3.00;;
80131;SDS011;69442;51.442;10.564;2023-09-18T01:23:56;2.28;;;1.80;;
80131;SDS011;69442;51.442;10.564;2023-09-18T01:26:21;3.50;;;3.13;;
80131;SDS011;69442;51.442;10.564;2023-09-18T01:28:46;2.90;;;2.70;;
80131;SDS011;69442;51.442;10.564;2023-09-18T01:31:12;3.10;;;2.70;;
80131;SDS011;69442;51.442;10.564;2023-09-18T01:33:37;2.53;;;2.30;;
80131;SDS011;69442;51.442;10.564;2023-09-18T01:36:04;2.20;;;2.00;;
80131;SDS011;69442;51.442;10.564;2023-09-18T01:38:32;3.28;;;2.45;;
80131;SDS011;69442;51.442;10.564;2023-09-18T01:40:58;2.35;;;2.15;;
80131;SDS011;69442;51.442;10.564;2023-09-18T01:43:25;3.47;;;2.60;;
80131;SDS011;69442;51.442;10.564;2023-09-18T01:45:50;2.83;;;2.63;;
80131;SDS011;69442;51.442;10.564;2023-09-18T01:48:16;2.35;;;1.77;;
80131;SDS011;69442;51.442;10.564;2023-09-18T01:50:41;3.28;;;2.97;;
80131;SDS011;69442;51.442;10.564;2023-09-18T01:53:07;2.42;;;2.22;;
80131;SDS011;69442;51.442;10.564;2023-09-18T01:55:32;2.60;;;2.40;;
80131;SDS011;69442;51.442;10.564;2023-09-18T01:57:58;3.50;;;2.80;;
80131;SDS011;69442;51.442;10.564;2023-09-18T02:00:24;3.08;;;2.50;;
80131;SDS011;69442;51.442;10.564;2023-09-18T02:02:50;2.50;;;2.30;;
80131;SDS011;69442;51.442;10.564;2023-09-18T02:05:15;3.10;;;2.80;;
80131;SDS011;69442;51.442;10.564;2023-09-18T02:07:40;3.15;;;2.85;;
80131;SDS011;69442;51.442;10.564;2023-09-18T02:10:06;2.75;;;2.47;;
80131;SDS011;69442;51.442;10.564;2023-09-18T02:12:32;2.97;;;2.67;;
80131;SDS011;69442;51.442;10.564;2023-09-18T02:14:57;2.28;;;2.08;;
80131;SDS011;69442;51.442;10.564;2023-09-18T02:17:23;2.30;;;1.95;;
80131;SDS011;69442;51.442;10.564;2023-09-18T02:19:49;2.63;;;2.28;;
80131;SDS011;69442;51.442;10.564;2023-09-18T02:22:14;3.17;;;2.55;;
80131;SDS011;69442;51.442;10.564;2023-09-18T02:24:40;2.33;;;2.13;;
80131;SDS011;69442;51.442;10.564;2023-09-18T02:27:05;4.10;;;3.40;;
80131;SDS011;69442;51.442;10.564;2023-09-18T02:29:31;2.53;;;2.33;;
80131;SDS011;69442;51.442;10.564;2023-09-18T02:31:56;3.03;;;2.50;;
80131;SDS011;69442;51.442;10.564;2023-09-18T02:34:22;3.97;;;2.80;;
80131;SDS011;69442;51.442;10.564;2023-09-18T02:36:47;3.33;;;2.78;;
80131;SDS011;69442;51.442;10.564;2023-09-18T02:39:13;3.70;;;3.20;;
80131;SDS011;69442;51.442;10.564;2023-09-18T02:41:38;4.40;;;3.60;;
80131;SDS011;69442;51.442;10.564;2023-09-18T02:44:03;2.60;;;2.40;;
80131;SDS011;69442;51.442;10.564;2023-09-18T02:46:29;3.38;;;3.08;;
80131;SDS011;69442;51.442;10.564;2023-09-18T02:48:55;2.58;;;2.33;;
80131;SDS011;69442;51.442;10.564;2023-09-18T02:51:20;3.15;;;2.60;;
80131;SDS011;69442;51.442;10.564;2023-09-18T02:53:47;3.40;;;2.90;;
80131;SDS011;69442;51.442;10.564;2023-09-18T02:56:12;2.20;;;2.00;;
80131;SDS011;69442;51.442;10.564;2023-09-18T02:58:38;3.78;;;3.45;;
80131;SDS011;69442;51.442;10.564;2023-09-18T03:01:03;2.00;;;1.80;;
80131;SDS011;69442;51.442;10.564;2023-09-18T03:03:31;3.90;;;3.13;;
80131;SDS011;69442;51.442;10.564;2023-09-18T03:06:02;3.70;;;3.33;;
80131;SDS011;69442;51.442;10.564;2023-09-18T03:08:28;3.55;;;2.55;;
80131;SDS011;69442;51.442;10.564;2023-09-18T03:10:54;2.50;;;2.30;;
80131;SDS011;69442;51.442;10.564;2023-09-18T03:13:19;3.05;;;2.47;;
80131;SDS011;69442;51.442;10.564;2023-09-18T03:15:45;4.13;;;3.42;;
80131;SDS011;69442;51.442;10.564;2023-09-18T03:18:13;2.60;;;2.33;;
80131;SDS011;69442;51.442;10.564;2023-09-18T03:20:39;2.47;;;2.17;;
80131;SDS011;69442;51.442;10.564;2023-09-18T03:23:05;2.88;;;2.58;;
80131;SDS011;69442;51.442;10.564;2023-09-18T03:25:30;4.03;;;3.28;;
80131;SDS011;69442;51.442;10.564;2023-09-18T03:27:56;3.25;;;3.03;;
80131;SDS011;69442;51.442;10.564;2023-09-18T03:30:22;2.20;;;2.00;;
80131;SDS011;69442;51.442;10.564;2023-09-18T03:32:49;4.47;;;3.22;;
80131;SDS011;69442;51.442;10.564;2023-09-18T03:35:15;2.67;;;2.15;;
80131;SDS011;69442;51.442;10.564;2023-09-18T03:37:52;2.38;;;2.17;;
80131;SDS011;69442;51.442;10.564;2023-09-18T03:40:21;2.60;;;2.40;;
80131;SDS011;69442;51.442;10.564;2023-09-18T03:42:47;3.25;;;2.90;;
80131;SDS011;69442;51.442;10.564;2023-09-18T03:45:14;2.58;;;2.38;;
80131;SDS011;69442;51.442;10.564;2023-09-18T03:47:40;4.22;;;3.58;;
80131;SDS011;69442;51.442;10.564;2023-09-18T03:50:07;3.97;;;2.92;;
80131;SDS011;69442;51.442;10.564;2023-09-18T03:52:33;4.25;;;3.67;;
80131;SDS011;69442;51.442;10.564;2023-09-18T03:54:59;3.22;;;2.92;;
80131;SDS011;69442;51.442;10.564;2023-09-18T03:57:24;3.13;;;2.72;;
80131;SDS011;69442;51.442;10.564;2023-09-18T03:59:50;3.50;;;2.92;;
80131;SDS011;69442;51.442;10.564;2023-09-18T04:02:15;2.40;;;2.17;;
80131;SDS011;69442;51.442;10.564;2023-09-18T04:04:41;3.15;;;2.28;;
80131;SDS011;69442;51.442;10.564;2023-09-18T04:07:07;1.77;;;1.67;;
80131;SDS011;69442;51.442;10.564;2023-09-18T04:09:33;2.17;;;1.98;;
80131;SDS011;69442;51.442;10.564;2023-09-18T04:12:02;3.90;;;3.17;;
80131;SDS011;69442;51.442;10.564;2023-09-18T04:14:28;3.25;;;2.92;;
80131;SDS011;69442;51.442;10.564;2023-09-18T04:16:53;2.83;;;2.40;;
80131;SDS011;69442;51.442;10.564;2023-09-18T04:19:19;2.25;;;2.05;;
80131;SDS011;69442;51.442;10.564;2023-09-18T04:21:44;5.57;;;3.45;;
80131;SDS011;69442;51.442;10.564;2023-09-18T04:24:09;3.40;;;3.10;;
80131;SDS011;69442;51.442;10.564;2023-09-18T04:26:35;2.90;;;2.63;;
80131;SDS011;69442;51.442;10.564;2023-09-18T04:29:00;5.13;;;4.40;;
80131;SDS011;69442;51.442;10.564;2023-09-18T04:31:26;2.40;;;2.20;;
80131;SDS011;69442;51.442;10.564;2023-09-18T04:33:52;4.07;;;3.17;;
80131;SDS011;69442;51.442;10.564;2023-09-18T04:36:18;3.55;;;3.00;;
80131;SDS011;69442;51.442;10.564;2023-09-18T04:38:44;2.72;;;2.40;;
80131;SDS011;69442;51.442;10.564;2023-09-18T04:41:09;3.75;;;3.45;;
80131;SDS011;69442;51.442;10.564;2023-09-18T04:43:36;2.53;;;2.33;;
80131;SDS011;69442;51.442;10.564;2023-09-18T04:46:03;4.97;;;3.60;;
80131;SDS011;69442;51.442;10.564;2023-09-18T04:48:30;4.57;;;4.15;;
80131;SDS011;69442;51.442;10.564;2023-09-18T04:50:56;4.13;;;3.55;;
80131;SDS011;69442;51.442;10.564;2023-09-18T04:53:22;4.95;;;4.40;;
80131;SDS011;69442;51.442;10.564;2023-09-18T04:55:47;6.78;;;4.97;;
80131;SDS011;69442;51.442;10.564;2023-09-18T04:58:16;6.38;;;4.97;;
80131;SDS011;69442;51.442;10.564;2023-09-18T05:00:42;4.15;;;3.75;;
80131;SDS011;69442;51.442;10.564;2023-09-18T05:03:08;7.40;;;5.53;;
80131;SDS011;69442;51.442;10.564;2023-09-18T05:05:34;2.85;;;2.63;;
80131;SDS011;69442;51.442;10.564;2023-09-18T05:08:05;6.10;;;3.47;;
80131;SDS011;69442;51.442;10.564;2023-09-18T05:10:35;6.40;;;5.25;;
80131;SDS011;69442;51.442;10.564;2023-09-18T05:13:00;5.05;;;4.47;;
80131;SDS011;69442;51.442;10.564;2023-09-18T05:15:28;5.53;;;4.50;;
80131;SDS011;69442;51.442;10.564;2023-09-18T05:17:54;4.50;;;4.10;;
80131;SDS011;69442;51.442;10.564;2023-09-18T05:20:23;4.78;;;4.28;;
80131;SDS011;69442;51.442;10.564;2023-09-18T05:22:52;4.20;;;3.55;;
80131;SDS011;69442;51.442;10.564;2023-09-18T05:25:21;5.78;;;3.83;;
80131;SDS011;69442;51.442;10.564;2023-09-18T05:27:47;6.82;;;4.57;;
80131;SDS011;69442;51.442;10.564;2023-09-18T05:30:15;4.28;;;3.30;;
80131;SDS011;69442;51.442;10.564;2023-09-18T05:35:12;4.18;;;3.78;;
80131;SDS011;69442;51.442;10.564;2023-09-18T05:37:37;4.60;;;4.20;;
80131;SDS011;69442;51.442;10.564;2023-09-18T05:40:07;3.22;;;2.80;;
80131;SDS011;69442;51.442;10.564;2023-09-18T05:42:36;5.35;;;4.30;;
80131;SDS011;69442;51.442;10.564;2023-09-18T05:45:03;4.95;;;3.72;;
80131;SDS011;69442;51.442;10.564;2023-09-18T05:47:30;4.45;;;4.05;;
80131;SDS011;69442;51.442;10.564;2023-09-18T05:49:57;4.85;;;4.40;;
80131;SDS011;69442;51.442;10.564;2023-09-18T05:52:22;5.10;;;4.60;;
80131;SDS011;69442;51.442;10.564;2023-09-18T05:54:48;5.93;;;4.47;;
80131;SDS011;69442;51.442;10.564;2023-09-18T05:57:14;3.72;;;3.35;;
80131;SDS011;69442;51.442;10.564;2023-09-18T05:59:39;2.97;;;2.67;;
80131;SDS011;69442;51.442;10.564;2023-09-18T06:02:08;4.15;;;3.75;;
80131;SDS011;69442;51.442;10.564;2023-09-18T06:04:34;3.83;;;3.33;;
80131;SDS011;69442;51.442;10.564;2023-09-18T06:07:02;3.40;;;3.10;;
80131;SDS011;69442;51.442;10.564;2023-09-18T06:09:28;3.22;;;2.90;;
80131;SDS011;69442;51.442;10.564;2023-09-18T06:11:53;3.33;;;3.03;;
80131;SDS011;69442;51.442;10.564;2023-09-18T06:14:18;4.50;;;3.25;;
80131;SDS011;69442;51.442;10.564;2023-09-18T06:16:44;3.10;;;2.80;;
80131;SDS011;69442;51.442;10.564;2023-09-18T06:19:09;3.20;;;2.90;;
80131;SDS011;69442;51.442;10.564;2023-09-18T06:21:35;3.60;;;3.30;;
80131;SDS011;69442;51.442;10.564;2023-09-18T06:24:00;5.15;;;3.65;;
80131;SDS011;69442;51.442;10.564;2023-09-18T06:26:25;2.88;;;2.63;;
80131;SDS011;69442;51.442;10.564;2023-09-18T06:28:51;2.92;;;2.50;;
80131;SDS011;69442;51.442;10.564;2023-09-18T06:31:17;3.17;;;2.88;;
80131;SDS011;69442;51.442;10.564;2023-09-18T06:33:43;3.38;;;3.08;;
80131;SDS011;69442;51.442;10.564;2023-09-18T06:36:09;2.70;;;2.50;;
80131;SDS011;69442;51.442;10.564;2023-09-18T06:38:34;5.75;;;3.50;;
80131;SDS011;69442;51.442;10.564;2023-09-18T06:40:59;3.45;;;3.15;;
80131;SDS011;69442;51.442;10.564;2023-09-18T06:43:25;4.32;;;3.05;;
80131;SDS011;69442;51.442;10.564;2023-09-18T06:45:50;3.95;;;3.55;;
80131;SDS011;69442;51.442;10.564;2023-09-18T06:48:15;5.28;;;4.78;;
80131;SDS011;69442;51.442;10.564;2023-09-18T06:50:42;5.45;;;4.22;;
80131;SDS011;69442;51.442;10.564;2023-09-18T06:53:07;4.63;;;4.10;;
80131;SDS011;69442;51.442;10.564;2023-09-18T06:55:34;6.28;;;4.45;;
80131;SDS011;69442;51.442;10.564;2023-09-18T06:57:59;4.72;;;4.22;;
80131;SDS011;69442;51.442;10.564;2023-09-18T07:00:25;8.02;;;5.22;;
80131;SDS011;69442;51.442;10.564;2023-09-18T07:02:50;3.67;;;3.38;;
80131;SDS011;69442;51.442;10.564;2023-09-18T07:05:16;5.25;;;4.75;;
80131;SDS011;69442;51.442;10.564;2023-09-18T07:07:41;3.28;;;2.97;;
80131;SDS011;69442;51.442;10.564;2023-09-18T07:10:06;11.63;;;6.22;;
80131;SDS011;69442;51.442;10.564;2023-09-18T07:12:32;3.20;;;2.90;;
80131;SDS011;69442;51.442;10.564;2023-09-18T07:15:01;3.70;;;3.40;;
80131;SDS011;69442;51.442;10.564;2023-09-18T07:17:28;5.85;;;4.15;;
80131;SDS011;69442;51.442;10.564;2023-09-18T07:19:54;4.38;;;3.92;;
80131;SDS011;69442;51.442;10.564;2023-09-18T07:22:20;4.75;;;3.67;;
80131;SDS011;69442;51.442;10.564;2023-09-18T07:24:45;3.67;;;3.38;;
80131;SDS011;69442;51.442;10.564;2023-09-18T07:27:11;4.35;;;3.55;;
80131;SDS011;69442;51.442;10.564;2023-09-18T07:29:36;7.75;;;5.78;;
80131;SDS011;69442;51.442;10.564;2023-09-18T07:32:02;6.68;;;5.35;;
80131;SDS011;69442;51.442;10.564;2023-09-18T07:34:28;7.25;;;4.47;;
80131;SDS011;69442;51.442;10.564;2023-09-18T07:36:53;4.15;;;3.72;;
80131;SDS011;69442;51.442;10.564;2023-09-18T07:39:20;3.80;;;3.40;;
80131;SDS011;69442;51.442;10.564;2023-09-18T07:41:46;2.65;;;2.45;;
80131;SDS011;69442;51.442;10.564;2023-09-18T07:44:12;3.95;;;2.92;;
80131;SDS011;69442;51.442;10.564;2023-09-18T07:46:43;5.25;;;4.25;;
80131;SDS011;69442;51.442;10.564;2023-09-18T07:49:08;6.90;;;6.03;;
80131;SDS011;69442;51.442;10.564;2023-09-18T07:51:34;3.45;;;3.15;;
80131;SDS011;69442;51.442;10.564;2023-09-18T07:53:59;5.57;;;5.03;;
80131;SDS011;69442;51.442;10.564;2023-09-18T07:56:25;4.80;;;4.32;;
80131;SDS011;69442;51.442;10.564;2023-09-18T07:58:50;6.50;;;5.03;;
80131;SDS011;69442;51.442;10.564;2023-09-18T08:01:15;7.40;;;5.03;;
80131;SDS011;69442;51.442;10.564;2023-09-18T08:03:42;14.85;;;9.68;;
80131;SDS011;69442;51.442;10.564;2023-09-18T08:06:07;7.35;;;5.82;;
80131;SDS011;69442;51.442;10.564;2023-09-18T08:08:33;3.85;;;3.30;;
80131;SDS011;69442;51.442;10.564;2023-09-18T08:11:00;4.97;;;3.53;;
80131;SDS011;69442;51.442;10.564;2023-09-18T08:13:31;3.83;;;3.35;;
80131;SDS011;69442;51.442;10.564;2023-09-18T08:15:57;3.50;;;2.90;;
80131;SDS011;69442;51.442;10.564;2023-09-18T08:18:22;9.27;;;5.43;;
80131;SDS011;69442;51.442;10.564;2023-09-18T08:20:51;4.18;;;3.72;;
80131;SDS011;69442;51.442;10.564;2023-09-18T08:23:17;5.30;;;3.95;;
80131;SDS011;69442;51.442;10.564;2023-09-18T08:25:42;7.88;;;3.88;;
80131;SDS011;69442;51.442;10.564;2023-09-18T08:28:08;3.22;;;2.92;;
80131;SDS011;69442;51.442;10.564;2023-09-18T08:30:33;5.07;;;3.33;;
80131;SDS011;69442;51.442;10.564;2023-09-18T08:32:59;4.20;;;3.10;;
80131;SDS011;69442;51.442;10.564;2023-09-18T08:35:24;2.70;;;2.50;;
80131;SDS011;69442;51.442;10.564;2023-09-18T08:37:54;5.68;;;3.28;;
80131;SDS011;69442;51.442;10.564;2023-09-18T08:40:19;4.22;;;3.15;;
80131;SDS011;69442;51.442;10.564;2023-09-18T08:42:46;5.20;;;3.38;;
80131;SDS011;69442;51.442;10.564;2023-09-18T08:45:14;5.75;;;3.03;;
80131;SDS011;69442;51.442;10.564;2023-09-18T08:47:47;8.77;;;3.40;;
80131;SDS011;69442;51.442;10.564;2023-09-18T08:50:13;3.30;;;2.83;;
80131;SDS011;69442;51.442;10.564;2023-09-18T08:52:40;7.45;;;3.38;;
80131;SDS011;69442;51.442;10.564;2023-09-18T08:55:06;4.93;;;3.28;;
80131;SDS011;69442;51.442;10.564;2023-09-18T08:57:32;5.10;;;2.90;;
80131;SDS011;69442;51.442;10.564;2023-09-18T09:00:00;4.85;;;2.78;;
80131;SDS011;69442;51.442;10.564;2023-09-18T09:02:35;5.90;;;3.33;;
80131;SDS011;69442;51.442;10.564;2023-09-18T09:05:00;5.15;;;2.88;;
80131;SDS011;69442;51.442;10.564;2023-09-18T09:07:26;4.07;;;2.85;;
80131;SDS011;69442;51.442;10.564;2023-09-18T09:09:53;3.67;;;2.78;;
80131;SDS011;69442;51.442;10.564;2023-09-18T09:12:46;5.90;;;3.33;;
80131;SDS011;69442;51.442;10.564;2023-09-18T09:15:24;7.63;;;3.70;;
80131;SDS011;69442;51.442;10.564;2023-09-18T09:17:51;4.78;;;2.80;;
80131;SDS011;69442;51.442;10.564;2023-09-18T09:20:26;4.25;;;2.60;;
80131;SDS011;69442;51.442;10.564;2023-09-18T09:22:51;5.43;;;3.10;;
80131;SDS011;69442;51.442;10.564;2023-09-18T09:27:56;4.25;;;2.80;;
80131;SDS011;69442;51.442;10.564;2023-09-18T09:30:24;6.03;;;3.13;;
80131;SDS011;69442;51.442;10.564;2023-09-18T09:32:52;3.15;;;2.67;;
80131;SDS011;69442;51.442;10.564;2023-09-18T09:35:29;5.80;;;2.38;;
80131;SDS011;69442;51.442;10.564;2023-09-18T09:37:57;2.97;;;2.60;;
80131;SDS011;69442;51.442;10.564;2023-09-18T09:40:24;6.75;;;2.63;;
80131;SDS011;69442;51.442;10.564;2023-09-18T09:42:51;6.65;;;2.75;;
80131;SDS011;69442;51.442;10.564;2023-09-18T09:45:19;7.47;;;2.90;;
80131;SDS011;69442;51.442;10.564;2023-09-18T09:47:45;6.53;;;2.65;;
80131;SDS011;69442;51.442;10.564;2023-09-18T09:50:14;4.90;;;2.47;;
80131;SDS011;69442;51.442;10.564;2023-09-18T09:52:46;3.83;;;2.70;;
80131;SDS011;69442;51.442;10.564;2023-09-18T09:57:55;4.22;;;2.38;;
80131;SDS011;69442;51.442;10.564;2023-09-18T10:00:25;4.63;;;2.53;;
80131;SDS011;69442;51.442;10.564;2023-09-18T10:02:57;4.75;;;2.90;;
80131;SDS011;69442;51.442;10.564;2023-09-18T10:05:26;6.53;;;2.60;;
80131;SDS011;69442;51.442;10.564;2023-09-18T10:07:54;4.57;;;2.42;;
80131;SDS011;69442;51.442;10.564;2023-09-18T10:10:23;6.00;;;3.00;;
80131;SDS011;69442;51.442;10.564;2023-09-18T10:12:51;3.45;;;2.63;;
80131;SDS011;69442;51.442;10.564;2023-09-18T10:15:18;6.88;;;3.33;;
80131;SDS011;69442;51.442;10.564;2023-09-18T10:17:45;5.25;;;2.63;;
80131;SDS011;69442;51.442;10.564;2023-09-18T10:20:14;5.90;;;2.50;;
80131;SDS011;69442;51.442;10.564;2023-09-18T10:22:46;4.00;;;2.40;;
80131;SDS011;69442;51.442;10.564;2023-09-18T10:30:15;3.30;;;1.83;;
80131;SDS011;69442;51.442;10.564;2023-09-18T10:32:43;6.53;;;1.60;;
80131;SDS011;69442;51.442;10.564;2023-09-18T10:35:13;2.88;;;1.52;;
80131;SDS011;69442;51.442;10.564;2023-09-18T10:37:39;3.80;;;2.00;;
80131;SDS011;69442;51.442;10.564;2023-09-18T10:40:10;4.03;;;1.40;;
80131;SDS011;69442;51.442;10.564;2023-09-18T10:42:39;5.10;;;1.33;;
80131;SDS011;69442;51.442;10.564;2023-09-18T10:47:35;3.67;;;1.85;;
80131;SDS011;69442;51.442;10.564;2023-09-18T10:50:05;2.90;;;1.52;;
80131;SDS011;69442;51.442;10.564;2023-09-18T10:52:32;3.67;;;1.55;;
80131;SDS011;69442;51.442;10.564;2023-09-18T10:55:00;9.27;;;1.60;;
80131;SDS011;69442;51.442;10.564;2023-09-18T10:57:27;1.75;;;1.60;;
80131;SDS011;69442;51.442;10.564;2023-09-18T10:59:54;6.80;;;1.95;;
80131;SDS011;69442;51.442;10.564;2023-09-18T11:02:19;1.92;;;1.40;;
80131;SDS011;69442;51.442;10.564;2023-09-18T11:04:46;4.60;;;1.40;;
80131;SDS011;69442;51.442;10.564;2023-09-18T11:07:19;1.50;;;1.20;;
80131;SDS011;69442;51.442;10.564;2023-09-18T11:09:46;2.80;;;1.50;;
80131;SDS011;69442;51.442;10.564;2023-09-18T11:12:11;4.68;;;1.40;;
80131;SDS011;69442;51.442;10.564;2023-09-18T11:14:59;5.88;;;1.40;;
80131;SDS011;69442;51.442;10.564;2023-09-18T11:17:31;4.18;;;1.38;;
80131;SDS011;69442;51.442;10.564;2023-09-18T11:20:02;4.75;;;1.30;;
80131;SDS011;69442;51.442;10.564;2023-09-18T11:22:29;3.08;;;1.50;;
80131;SDS011;69442;51.442;10.564;2023-09-18T11:25:15;3.17;;;1.60;;
80131;SDS011;69442;51.442;10.564;2023-09-18T11:28:12;1.40;;;1.30;;
80131;SDS011;69442;51.442;10.564;2023-09-18T11:30:50;2.88;;;1.20;;
80131;SDS011;69442;51.442;10.564;2023-09-18T11:33:30;3.47;;;1.10;;
80131;SDS011;69442;51.442;10.564;2023-09-18T11:35:56;2.25;;;1.20;;
80131;SDS011;69442;51.442;10.564;2023-09-18T11:38:22;9.60;;;1.70;;
80131;SDS011;69442;51.442;10.564;2023-09-18T11:40:48;2.90;;;1.38;;
80131;SDS011;69442;51.442;10.564;2023-09-18T11:43:21;3.35;;;1.17;;
80131;SDS011;69442;51.442;10.564;2023-09-18T11:45:57;4.93;;;1.30;;
80131;SDS011;69442;51.442;10.564;2023-09-18T11:48:25;2.87;;;1.37;;
80131;SDS011;69442;51.442;10.564;2023-09-18T11:50:55;3.50;;;1.87;;
80131;SDS011;69442;51.442;10.564;2023-09-18T11:53:23;3.05;;;1.33;;
80131;SDS011;69442;51.442;10.564;2023-09-18T11:55:49;2.15;;;1.10;;
80131;SDS011;69442;51.442;10.564;2023-09-18T11:58:15;3.67;;;1.50;;
80131;SDS011;69442;51.442;10.564;2023-09-18T12:00:41;4.90;;;1.17;;
80131;SDS011;69442;51.442;10.564;2023-09-18T12:03:16;3.30;;;1.15;;
80131;SDS011;69442;51.442;10.564;2023-09-18T12:05:50;3.60;;;1.30;;
80131;SDS011;69442;51.442;10.564;2023-09-18T12:08:25;3.13;;;1.08;;
80131;SDS011;69442;51.442;10.564;2023-09-18T12:10:55;3.63;;;1.20;;
80131;SDS011;69442;51.442;10.564;2023-09-18T12:13:21;2.38;;;1.00;;
80131;SDS011;69442;51.442;10.564;2023-09-18T12:15:48;5.22;;;1.30;;
80131;SDS011;69442;51.442;10.564;2023-09-18T12:18:14;3.95;;;1.20;;
80131;SDS011;69442;51.442;10.564;2023-09-18T12:20:47;3.40;;;1.25;;
80131;SDS011;69442;51.442;10.564;2023-09-18T12:23:14;4.75;;;1.63;;
80131;SDS011;69442;51.442;10.564;2023-09-18T12:25:40;4.63;;;1.38;;
80131;SDS011;69442;51.442;10.564;2023-09-18T12:28:06;2.58;;;1.25;;
80131;SDS011;69442;51.442;10.564;2023-09-18T12:30:33;4.97;;;1.48;;
80131;SDS011;69442;51.442;10.564;2023-09-18T12:32:59;5.80;;;1.50;;
80131;SDS011;69442;51.442;10.564;2023-09-18T12:35:31;2.40;;;1.30;;
80131;SDS011;69442;51.442;10.564;2023-09-18T12:37:57;5.68;;;1.60;;
80131;SDS011;69442;51.442;10.564;2023-09-18T12:40:25;1.55;;;1.33;;
80131;SDS011;69442;51.442;10.564;2023-09-18T12:45:24;2.85;;;1.17;;
80131;SDS011;69442;51.442;10.564;2023-09-18T12:47:50;2.75;;;1.10;;
80131;SDS011;69442;51.442;10.564;2023-09-18T12:50:17;4.70;;;1.50;;
80131;SDS011;69442;51.442;10.564;2023-09-18T12:52:42;3.83;;;1.08;;
80131;SDS011;69442;51.442;10.564;2023-09-18T12:55:20;4.13;;;1.30;;
80131;SDS011;69442;51.442;10.564;2023-09-18T12:57:55;3.58;;;1.30;;
80131;SDS011;69442;51.442;10.564;2023-09-18T13:00:21;3.13;;;1.40;;
80131;SDS011;69442;51.442;10.564;2023-09-18T13:02:50;3.28;;;1.30;;
80131;SDS011;69442;51.442;10.564;2023-09-18T13:05:22;3.75;;;1.17;;
80131;SDS011;69442;51.442;10.564;2023-09-18T13:07:53;3.25;;;1.33;;
80131;SDS011;69442;51.442;10.564;2023-09-18T13:10:19;2.90;;;1.17;;
80131;SDS011;69442;51.442;10.564;2023-09-18T13:12:50;7.35;;;1.98;;
80131;SDS011;69442;51.442;10.564;2023-09-18T13:17:52;3.60;;;1.40;;
80131;SDS011;69442;51.442;10.564;2023-09-18T13:20:21;2.35;;;1.02;;
80131;SDS011;69442;51.442;10.564;2023-09-18T13:22:50;6.60;;;1.65;;
80131;SDS011;69442;51.442;10.564;2023-09-18T13:25:20;5.85;;;1.60;;
80131;SDS011;69442;51.442;10.564;2023-09-18T13:27:49;5.68;;;1.50;;
80131;SDS011;69442;51.442;10.564;2023-09-18T13:30:15;4.32;;;1.50;;
80131;SDS011;69442;51.442;10.564;2023-09-18T13:32:43;1.85;;;1.15;;
80131;SDS011;69442;51.442;10.564;2023-09-18T13:35:09;3.97;;;1.50;;
80131;SDS011;69442;51.442;10.564;2023-09-18T13:37:36;1.88;;;1.20;;
80131;SDS011;69442;51.442;10.564;2023-09-18T13:40:04;4.90;;;1.60;;
80131;SDS011;69442;51.442;10.564;2023-09-18T13:42:32;5.82;;;1.50;;
80131;SDS011;69442;51.442;10.564;2023-09-18T13:44:58;2.65;;;1.20;;
80131;SDS011;69442;51.442;10.564;2023-09-18T13:47:27;2.55;;;1.27;;
80131;SDS011;69442;51.442;10.564;2023-09-18T13:49:53;3.25;;;1.52;;
80131;SDS011;69442;51.442;10.564;2023-09-18T13:52:22;1.92;;;1.30;;
80131;SDS011;69442;51.442;10.564;2023-09-18T13:54:48;5.32;;;1.15;;
80131;SDS011;69442;51.442;10.564;2023-09-18T13:57:16;4.45;;;1.65;;
80131;SDS011;69442;51.442;10.564;2023-09-18T13:59:43;4.35;;;1.48;;
80131;SDS011;69442;51.442;10.564;2023-09-18T14:02:13;3.45;;;1.15;;
80131;SDS011;69442;51.442;10.564;2023-09-18T14:04:39;1.52;;;1.08;;
80131;SDS011;69442;51.442;10.564;2023-09-18T14:07:05;3.65;;;1.70;;
80131;SDS011;69442;51.442;10.564;2023-09-18T14:09:31;3.92;;;1.52;;
80131;SDS011;69442;51.442;10.564;2023-09-18T14:11:56;4.65;;;1.40;;
80131;SDS011;69442;51.442;10.564;2023-09-18T14:14:22;2.05;;;0.93;;
80131;SDS011;69442;51.442;10.564;2023-09-18T14:16:48;4.25;;;1.50;;
80131;SDS011;69442;51.442;10.564;2023-09-18T14:19:15;4.05;;;1.50;;
80131;SDS011;69442;51.442;10.564;2023-09-18T14:21:41;2.10;;;1.13;;
80131;SDS011;69442;51.442;10.564;2023-09-18T14:24:06;2.95;;;1.25;;
80131;SDS011;69442;51.442;10.564;2023-09-18T14:26:32;6.55;;;1.65;;
80131;SDS011;69442;51.442;10.564;2023-09-18T14:28:59;1.55;;;1.23;;
80131;SDS011;69442;51.442;10.564;2023-09-18T14:31:26;1.27;;;0.93;;
80131;SDS011;69442;51.442;10.564;2023-09-18T14:33:52;4.80;;;1.40;;
80131;SDS011;69442;51.442;10.564;2023-09-18T14:36:17;1.75;;;1.10;;
80131;SDS011;69442;51.442;10.564;2023-09-18T14:38:43;1.08;;;0.85;;
80131;SDS011;69442;51.442;10.564;2023-09-18T14:41:08;2.28;;;1.10;;
80131;SDS011;69442;51.442;10.564;2023-09-18T14:43:34;3.08;;;1.27;;
80131;SDS011;69442;51.442;10.564;2023-09-18T14:46:00;3.45;;;1.40;;
80131;SDS011;69442;51.442;10.564;2023-09-18T14:48:25;2.28;;;1.25;;
80131;SDS011;69442;51.442;10.564;2023-09-18T14:50:54;3.47;;;1.55;;
80131;SDS011;69442;51.442;10.564;2023-09-18T14:53:20;2.75;;;1.20;;